Aérodrome :
LOGIN :

S'inscrire | Disclaimer

   EN    FR    IT 

 










Légende :    VFR   VFR Marginal   IFR   IFR Intensif   IFR Très Intensif
Visi : 
Plafond : 
>= 8 km
>= 3000ft
5 à 8 km
1000 à 3000 ft
1500m à 5 km
500 à 1000 ft
800 à 1500m
200 à 500 ft
< 800m
< 200 ft
Symboles :   Orages  Brouillard  Fortes neiges  Fortes précipitations  Vent > 20 kt
SIGMETs :   Divers  Orages  Givrage  Turbulence  Onde Orograph.  Cendres Volcan.






- Altitude de l'aérodrome : 992 ft


LIRV - Roma Viterbo Air Force Base (military)

DERNIER METAR :
  • 151555Z 25002KT 9999 FEW015 BKN025 13/12 Q1018 RMK BKN MON E SE GEN INC NC VIS MIN 9999 WIND THR04 /////KT BLU

METARs EXPIRÉS :
  • 151455Z 19005KT 9999 SCT015 BKN020 14/12 Q1018
  • 151355Z 22006KT 9999 SCT018 SCT025 14/12 Q1018

TAF TAF LIRV
Valide du 15 à 15h jusqu'au 16 à 00h UTC


151400Z 1515/1524 17010KT 9999 SCT018 SCT030



MET'MAP, la Météo Aéronautique d'un coup d'oeil ! - Copyright ORBIFLY Décembre 2007 - Disclaimer

ORBIFLY MET'MAP TEAM :

Programmation & Développement : Alexandra Zaïnal
Sur une idée originale de : Baudouin d'Aumeries
Assistance à la programmation : Marc-Olivier Méhu
Soutien technique & logistique : Manuel Goepfert

Contact : metmap@orbifly.com




SOURCES & CREDITS :

   NOAA